sensor_id;sensor_type;location;lat;lon;timestamp;P1;durP1;ratioP1;P2;durP2;ratioP2
3563;SDS011;1796;52.388;13.096;2022-08-03T00:00:12;4.63;;;4.23;;
3563;SDS011;1796;52.388;13.096;2022-08-03T00:02:41;9.80;;;5.30;;
3563;SDS011;1796;52.388;13.096;2022-08-03T00:05:08;10.63;;;4.73;;
3563;SDS011;1796;52.388;13.096;2022-08-03T00:07:35;4.93;;;4.07;;
3563;SDS011;1796;52.388;13.096;2022-08-03T00:10:03;9.50;;;4.20;;
3563;SDS011;1796;52.388;13.096;2022-08-03T00:12:30;6.30;;;4.13;;
3563;SDS011;1796;52.388;13.096;2022-08-03T00:14:57;7.33;;;4.20;;
3563;SDS011;1796;52.388;13.096;2022-08-03T00:17:24;8.07;;;4.23;;
3563;SDS011;1796;52.388;13.096;2022-08-03T00:19:52;7.30;;;4.53;;
3563;SDS011;1796;52.388;13.096;2022-08-03T00:22:19;7.27;;;3.77;;
3563;SDS011;1796;52.388;13.096;2022-08-03T00:24:46;5.70;;;4.27;;
3563;SDS011;1796;52.388;13.096;2022-08-03T00:27:12;8.13;;;4.33;;
3563;SDS011;1796;52.388;13.096;2022-08-03T00:29:39;6.80;;;4.10;;
3563;SDS011;1796;52.388;13.096;2022-08-03T00:32:06;4.57;;;3.90;;
3563;SDS011;1796;52.388;13.096;2022-08-03T00:34:33;7.60;;;4.37;;
3563;SDS011;1796;52.388;13.096;2022-08-03T00:37:01;8.47;;;4.00;;
3563;SDS011;1796;52.388;13.096;2022-08-03T00:39:28;4.17;;;3.80;;
3563;SDS011;1796;52.388;13.096;2022-08-03T00:41:55;9.27;;;4.47;;
3563;SDS011;1796;52.388;13.096;2022-08-03T00:44:22;5.93;;;4.07;;
3563;SDS011;1796;52.388;13.096;2022-08-03T00:46:49;9.50;;;4.57;;
3563;SDS011;1796;52.388;13.096;2022-08-03T00:49:16;8.80;;;4.30;;
3563;SDS011;1796;52.388;13.096;2022-08-03T00:51:42;9.37;;;4.80;;
3563;SDS011;1796;52.388;13.096;2022-08-03T00:54:11;12.87;;;4.40;;
3563;SDS011;1796;52.388;13.096;2022-08-03T00:56:38;8.70;;;4.13;;
3563;SDS011;1796;52.388;13.096;2022-08-03T00:59:06;5.60;;;4.43;;
3563;SDS011;1796;52.388;13.096;2022-08-03T01:01:35;10.23;;;4.50;;
3563;SDS011;1796;52.388;13.096;2022-08-03T01:04:02;5.67;;;4.10;;
3563;SDS011;1796;52.388;13.096;2022-08-03T01:06:31;6.47;;;4.50;;
3563;SDS011;1796;52.388;13.096;2022-08-03T01:09:05;13.17;;;4.40;;
3563;SDS011;1796;52.388;13.096;2022-08-03T01:11:39;7.40;;;4.10;;
3563;SDS011;1796;52.388;13.096;2022-08-03T01:14:14;6.53;;;3.70;;
3563;SDS011;1796;52.388;13.096;2022-08-03T01:16:56;5.03;;;3.43;;
3563;SDS011;1796;52.388;13.096;2022-08-03T01:19:35;12.90;;;4.10;;
3563;SDS011;1796;52.388;13.096;2022-08-03T01:22:16;6.23;;;3.60;;
3563;SDS011;1796;52.388;13.096;2022-08-03T01:24:55;5.27;;;3.63;;
3563;SDS011;1796;52.388;13.096;2022-08-03T01:27:30;5.80;;;3.57;;
3563;SDS011;1796;52.388;13.096;2022-08-03T01:30:04;10.77;;;4.27;;
3563;SDS011;1796;52.388;13.096;2022-08-03T01:32:34;8.70;;;3.47;;
3563;SDS011;1796;52.388;13.096;2022-08-03T01:35:07;5.07;;;3.60;;
3563;SDS011;1796;52.388;13.096;2022-08-03T01:37:37;5.73;;;3.60;;
3563;SDS011;1796;52.388;13.096;2022-08-03T01:40:07;9.33;;;3.47;;
3563;SDS011;1796;52.388;13.096;2022-08-03T01:42:36;5.90;;;3.43;;
3563;SDS011;1796;52.388;13.096;2022-08-03T01:45:07;8.87;;;4.17;;
3563;SDS011;1796;52.388;13.096;2022-08-03T01:47:36;6.50;;;3.63;;
3563;SDS011;1796;52.388;13.096;2022-08-03T01:50:05;4.40;;;3.30;;
3563;SDS011;1796;52.388;13.096;2022-08-03T01:52:33;5.90;;;3.20;;
3563;SDS011;1796;52.388;13.096;2022-08-03T01:55:05;5.70;;;3.70;;
3563;SDS011;1796;52.388;13.096;2022-08-03T01:57:33;4.30;;;3.50;;
3563;SDS011;1796;52.388;13.096;2022-08-03T02:00:02;10.93;;;3.63;;
3563;SDS011;1796;52.388;13.096;2022-08-03T02:02:32;4.47;;;3.43;;
3563;SDS011;1796;52.388;13.096;2022-08-03T02:05:02;6.83;;;3.47;;
3563;SDS011;1796;52.388;13.096;2022-08-03T02:07:32;5.03;;;3.47;;
3563;SDS011;1796;52.388;13.096;2022-08-03T02:10:02;8.23;;;3.40;;
3563;SDS011;1796;52.388;13.096;2022-08-03T02:12:31;10.50;;;3.60;;
3563;SDS011;1796;52.388;13.096;2022-08-03T02:14:59;17.00;;;4.30;;
3563;SDS011;1796;52.388;13.096;2022-08-03T02:17:27;3.60;;;3.37;;
3563;SDS011;1796;52.388;13.096;2022-08-03T02:19:56;7.37;;;3.60;;
3563;SDS011;1796;52.388;13.096;2022-08-03T02:22:26;5.50;;;3.40;;
3563;SDS011;1796;52.388;13.096;2022-08-03T02:24:54;4.40;;;3.53;;
3563;SDS011;1796;52.388;13.096;2022-08-03T02:27:22;3.60;;;3.10;;
3563;SDS011;1796;52.388;13.096;2022-08-03T02:29:51;9.53;;;3.50;;
3563;SDS011;1796;52.388;13.096;2022-08-03T02:32:23;3.80;;;3.33;;
3563;SDS011;1796;52.388;13.096;2022-08-03T02:34:54;12.20;;;3.90;;
3563;SDS011;1796;52.388;13.096;2022-08-03T02:37:26;4.87;;;3.50;;
3563;SDS011;1796;52.388;13.096;2022-08-03T02:39:57;3.93;;;3.37;;
3563;SDS011;1796;52.388;13.096;2022-08-03T02:42:27;5.00;;;3.27;;
3563;SDS011;1796;52.388;13.096;2022-08-03T02:44:55;4.83;;;3.40;;
3563;SDS011;1796;52.388;13.096;2022-08-03T02:47:25;7.83;;;4.17;;
3563;SDS011;1796;52.388;13.096;2022-08-03T02:49:54;5.83;;;3.77;;
3563;SDS011;1796;52.388;13.096;2022-08-03T02:52:24;5.13;;;3.50;;
3563;SDS011;1796;52.388;13.096;2022-08-03T02:54:55;3.47;;;3.20;;
3563;SDS011;1796;52.388;13.096;2022-08-03T02:57:25;10.13;;;3.80;;
3563;SDS011;1796;52.388;13.096;2022-08-03T02:59:53;4.80;;;3.70;;
3563;SDS011;1796;52.388;13.096;2022-08-03T03:02:21;6.37;;;3.33;;
3563;SDS011;1796;52.388;13.096;2022-08-03T03:04:50;5.23;;;3.27;;
3563;SDS011;1796;52.388;13.096;2022-08-03T03:07:18;3.73;;;3.40;;
3563;SDS011;1796;52.388;13.096;2022-08-03T03:09:47;8.10;;;4.00;;
3563;SDS011;1796;52.388;13.096;2022-08-03T03:12:14;6.00;;;3.07;;
3563;SDS011;1796;52.388;13.096;2022-08-03T03:14:43;3.80;;;2.90;;
3563;SDS011;1796;52.388;13.096;2022-08-03T03:17:10;4.97;;;3.53;;
3563;SDS011;1796;52.388;13.096;2022-08-03T03:19:38;4.97;;;4.00;;
3563;SDS011;1796;52.388;13.096;2022-08-03T03:22:06;3.53;;;3.13;;
3563;SDS011;1796;52.388;13.096;2022-08-03T03:24:35;5.60;;;3.63;;
3563;SDS011;1796;52.388;13.096;2022-08-03T03:27:04;5.57;;;3.60;;
3563;SDS011;1796;52.388;13.096;2022-08-03T03:29:31;3.83;;;3.53;;
3563;SDS011;1796;52.388;13.096;2022-08-03T03:31:59;5.63;;;3.30;;
3563;SDS011;1796;52.388;13.096;2022-08-03T03:34:28;6.83;;;3.47;;
3563;SDS011;1796;52.388;13.096;2022-08-03T03:36:55;5.47;;;3.47;;
3563;SDS011;1796;52.388;13.096;2022-08-03T03:39:22;4.93;;;3.43;;
3563;SDS011;1796;52.388;13.096;2022-08-03T03:41:49;5.27;;;3.40;;
3563;SDS011;1796;52.388;13.096;2022-08-03T03:44:18;8.30;;;3.60;;
3563;SDS011;1796;52.388;13.096;2022-08-03T03:46:45;3.63;;;3.23;;
3563;SDS011;1796;52.388;13.096;2022-08-03T03:49:12;7.93;;;4.67;;
3563;SDS011;1796;52.388;13.096;2022-08-03T03:51:39;10.73;;;3.90;;
3563;SDS011;1796;52.388;13.096;2022-08-03T03:54:06;3.93;;;3.53;;
3563;SDS011;1796;52.388;13.096;2022-08-03T03:56:32;5.67;;;3.60;;
3563;SDS011;1796;52.388;13.096;2022-08-03T03:58:59;4.33;;;3.80;;
3563;SDS011;1796;52.388;13.096;2022-08-03T04:01:28;7.13;;;3.63;;
3563;SDS011;1796;52.388;13.096;2022-08-03T04:03:55;7.20;;;3.50;;
3563;SDS011;1796;52.388;13.096;2022-08-03T04:06:42;13.07;;;4.50;;
3563;SDS011;1796;52.388;13.096;2022-08-03T04:09:26;25.50;;;3.67;;
3563;SDS011;1796;52.388;13.096;2022-08-03T04:12:10;5.77;;;4.00;;
3563;SDS011;1796;52.388;13.096;2022-08-03T04:14:38;15.53;;;3.80;;
3563;SDS011;1796;52.388;13.096;2022-08-03T04:17:07;6.07;;;3.63;;
3563;SDS011;1796;52.388;13.096;2022-08-03T04:19:38;4.60;;;3.60;;
3563;SDS011;1796;52.388;13.096;2022-08-03T04:22:09;3.37;;;3.00;;
3563;SDS011;1796;52.388;13.096;2022-08-03T04:24:38;5.83;;;3.67;;
3563;SDS011;1796;52.388;13.096;2022-08-03T04:27:08;5.27;;;3.60;;
3563;SDS011;1796;52.388;13.096;2022-08-03T04:29:38;5.03;;;3.57;;
3563;SDS011;1796;52.388;13.096;2022-08-03T04:32:10;6.50;;;3.20;;
3563;SDS011;1796;52.388;13.096;2022-08-03T04:34:37;6.27;;;3.47;;
3563;SDS011;1796;52.388;13.096;2022-08-03T04:37:08;6.30;;;3.50;;
3563;SDS011;1796;52.388;13.096;2022-08-03T04:39:37;9.80;;;3.80;;
3563;SDS011;1796;52.388;13.096;2022-08-03T04:42:07;7.00;;;4.23;;
3563;SDS011;1796;52.388;13.096;2022-08-03T04:44:35;12.20;;;4.47;;
3563;SDS011;1796;52.388;13.096;2022-08-03T04:47:05;4.43;;;3.50;;
3563;SDS011;1796;52.388;13.096;2022-08-03T04:49:33;9.27;;;5.17;;
3563;SDS011;1796;52.388;13.096;2022-08-03T04:52:01;7.03;;;3.57;;
3563;SDS011;1796;52.388;13.096;2022-08-03T04:54:28;8.77;;;4.53;;
3563;SDS011;1796;52.388;13.096;2022-08-03T04:56:56;7.80;;;3.13;;
3563;SDS011;1796;52.388;13.096;2022-08-03T04:59:23;10.37;;;5.73;;
3563;SDS011;1796;52.388;13.096;2022-08-03T05:01:50;3.50;;;3.20;;
3563;SDS011;1796;52.388;13.096;2022-08-03T05:04:17;16.53;;;4.90;;
3563;SDS011;1796;52.388;13.096;2022-08-03T05:06:45;7.13;;;3.27;;
3563;SDS011;1796;52.388;13.096;2022-08-03T05:09:12;8.70;;;3.20;;
3563;SDS011;1796;52.388;13.096;2022-08-03T05:11:39;3.80;;;2.83;;
3563;SDS011;1796;52.388;13.096;2022-08-03T05:14:06;3.90;;;3.30;;
3563;SDS011;1796;52.388;13.096;2022-08-03T05:16:33;6.40;;;3.20;;
3563;SDS011;1796;52.388;13.096;2022-08-03T05:19:00;6.17;;;3.50;;
3563;SDS011;1796;52.388;13.096;2022-08-03T05:21:27;11.37;;;3.90;;
3563;SDS011;1796;52.388;13.096;2022-08-03T05:23:55;11.20;;;2.97;;
3563;SDS011;1796;52.388;13.096;2022-08-03T05:26:22;5.67;;;3.07;;
3563;SDS011;1796;52.388;13.096;2022-08-03T05:28:49;7.63;;;3.60;;
3563;SDS011;1796;52.388;13.096;2022-08-03T05:31:16;6.07;;;3.10;;
3563;SDS011;1796;52.388;13.096;2022-08-03T05:33:43;4.73;;;3.23;;
3563;SDS011;1796;52.388;13.096;2022-08-03T05:36:12;16.33;;;3.47;;
3563;SDS011;1796;52.388;13.096;2022-08-03T05:38:39;6.20;;;3.00;;
3563;SDS011;1796;52.388;13.096;2022-08-03T05:41:08;7.00;;;2.97;;
3563;SDS011;1796;52.388;13.096;2022-08-03T05:43:35;14.23;;;3.40;;
3563;SDS011;1796;52.388;13.096;2022-08-03T05:46:02;14.13;;;2.90;;
3563;SDS011;1796;52.388;13.096;2022-08-03T05:48:29;12.20;;;3.77;;
3563;SDS011;1796;52.388;13.096;2022-08-03T05:50:56;13.17;;;3.60;;
3563;SDS011;1796;52.388;13.096;2022-08-03T05:53:23;4.37;;;2.77;;
3563;SDS011;1796;52.388;13.096;2022-08-03T05:55:50;6.47;;;2.37;;
3563;SDS011;1796;52.388;13.096;2022-08-03T05:58:19;5.20;;;2.80;;
3563;SDS011;1796;52.388;13.096;2022-08-03T06:00:46;18.37;;;3.10;;
3563;SDS011;1796;52.388;13.096;2022-08-03T06:03:14;4.80;;;2.63;;
3563;SDS011;1796;52.388;13.096;2022-08-03T06:05:41;8.70;;;3.50;;
3563;SDS011;1796;52.388;13.096;2022-08-03T06:08:08;10.40;;;3.80;;
3563;SDS011;1796;52.388;13.096;2022-08-03T06:10:35;3.83;;;2.17;;
3563;SDS011;1796;52.388;13.096;2022-08-03T06:13:02;4.33;;;2.50;;
3563;SDS011;1796;52.388;13.096;2022-08-03T06:15:30;4.97;;;2.13;;
3563;SDS011;1796;52.388;13.096;2022-08-03T06:17:59;4.47;;;2.57;;
3563;SDS011;1796;52.388;13.096;2022-08-03T06:20:26;4.10;;;2.47;;
3563;SDS011;1796;52.388;13.096;2022-08-03T06:22:54;3.37;;;1.63;;
3563;SDS011;1796;52.388;13.096;2022-08-03T06:25:21;3.47;;;1.70;;
3563;SDS011;1796;52.388;13.096;2022-08-03T06:27:50;10.37;;;2.13;;
3563;SDS011;1796;52.388;13.096;2022-08-03T06:30:17;4.60;;;2.23;;
3563;SDS011;1796;52.388;13.096;2022-08-03T06:32:45;6.73;;;2.10;;
3563;SDS011;1796;52.388;13.096;2022-08-03T06:35:12;11.97;;;3.10;;
3563;SDS011;1796;52.388;13.096;2022-08-03T06:37:40;6.37;;;2.17;;
3563;SDS011;1796;52.388;13.096;2022-08-03T06:40:10;7.20;;;1.67;;
3563;SDS011;1796;52.388;13.096;2022-08-03T06:42:38;2.40;;;1.47;;
3563;SDS011;1796;52.388;13.096;2022-08-03T06:45:06;2.30;;;1.43;;
3563;SDS011;1796;52.388;13.096;2022-08-03T06:47:34;8.13;;;2.17;;
3563;SDS011;1796;52.388;13.096;2022-08-03T06:50:02;4.27;;;2.00;;
3563;SDS011;1796;52.388;13.096;2022-08-03T06:52:29;3.33;;;1.87;;
3563;SDS011;1796;52.388;13.096;2022-08-03T06:54:56;6.40;;;1.80;;
3563;SDS011;1796;52.388;13.096;2022-08-03T06:57:24;9.50;;;2.10;;
3563;SDS011;1796;52.388;13.096;2022-08-03T06:59:51;3.00;;;1.70;;
3563;SDS011;1796;52.388;13.096;2022-08-03T07:02:17;5.70;;;1.87;;
3563;SDS011;1796;52.388;13.096;2022-08-03T07:04:44;5.30;;;1.90;;
3563;SDS011;1796;52.388;13.096;2022-08-03T07:07:13;13.17;;;1.80;;
3563;SDS011;1796;52.388;13.096;2022-08-03T07:09:40;3.03;;;1.40;;
3563;SDS011;1796;52.388;13.096;2022-08-03T07:12:07;3.53;;;1.90;;
3563;SDS011;1796;52.388;13.096;2022-08-03T07:14:34;1.73;;;1.57;;
3563;SDS011;1796;52.388;13.096;2022-08-03T07:17:01;2.83;;;1.50;;
3563;SDS011;1796;52.388;13.096;2022-08-03T07:19:27;2.90;;;2.00;;
3563;SDS011;1796;52.388;13.096;2022-08-03T07:21:54;7.93;;;1.67;;
3563;SDS011;1796;52.388;13.096;2022-08-03T07:24:23;2.03;;;1.70;;
3563;SDS011;1796;52.388;13.096;2022-08-03T07:26:50;4.50;;;2.20;;
3563;SDS011;1796;52.388;13.096;2022-08-03T07:29:17;4.47;;;1.70;;
3563;SDS011;1796;52.388;13.096;2022-08-03T07:31:44;6.10;;;1.83;;
3563;SDS011;1796;52.388;13.096;2022-08-03T07:34:11;4.20;;;1.60;;
3563;SDS011;1796;52.388;13.096;2022-08-03T07:36:38;4.87;;;2.47;;
3563;SDS011;1796;52.388;13.096;2022-08-03T07:39:04;2.70;;;2.10;;
3563;SDS011;1796;52.388;13.096;2022-08-03T07:41:33;3.97;;;1.80;;
3563;SDS011;1796;52.388;13.096;2022-08-03T07:44:00;1.70;;;1.43;;
3563;SDS011;1796;52.388;13.096;2022-08-03T07:46:27;1.47;;;1.37;;
3563;SDS011;1796;52.388;13.096;2022-08-03T07:48:54;2.00;;;1.80;;
3563;SDS011;1796;52.388;13.096;2022-08-03T07:51:21;2.60;;;1.67;;
3563;SDS011;1796;52.388;13.096;2022-08-03T07:53:48;1.67;;;1.57;;
3563;SDS011;1796;52.388;13.096;2022-08-03T07:56:15;5.40;;;2.07;;
3563;SDS011;1796;52.388;13.096;2022-08-03T07:58:45;2.70;;;1.60;;
3563;SDS011;1796;52.388;13.096;2022-08-03T08:01:12;3.03;;;1.33;;
3563;SDS011;1796;52.388;13.096;2022-08-03T08:03:38;4.20;;;1.70;;
3563;SDS011;1796;52.388;13.096;2022-08-03T08:06:06;4.47;;;1.63;;
3563;SDS011;1796;52.388;13.096;2022-08-03T08:08:33;2.70;;;1.60;;
3563;SDS011;1796;52.388;13.096;2022-08-03T08:11:00;4.63;;;1.20;;
3563;SDS011;1796;52.388;13.096;2022-08-03T08:13:27;10.13;;;1.60;;
3563;SDS011;1796;52.388;13.096;2022-08-03T08:15:55;3.50;;;1.47;;
3563;SDS011;1796;52.388;13.096;2022-08-03T08:18:22;1.50;;;1.50;;
3563;SDS011;1796;52.388;13.096;2022-08-03T08:20:49;1.13;;;1.00;;
3563;SDS011;1796;52.388;13.096;2022-08-03T08:23:16;1.47;;;1.03;;
3563;SDS011;1796;52.388;13.096;2022-08-03T08:25:47;6.73;;;1.53;;
3563;SDS011;1796;52.388;13.096;2022-08-03T08:28:16;2.20;;;1.97;;
3563;SDS011;1796;52.388;13.096;2022-08-03T08:30:43;1.13;;;1.00;;
3563;SDS011;1796;52.388;13.096;2022-08-03T08:33:11;1.17;;;0.93;;
3563;SDS011;1796;52.388;13.096;2022-08-03T08:35:39;1.20;;;1.10;;
3563;SDS011;1796;52.388;13.096;2022-08-03T08:38:05;1.90;;;1.30;;
3563;SDS011;1796;52.388;13.096;2022-08-03T08:40:33;1.00;;;1.00;;
3563;SDS011;1796;52.388;13.096;2022-08-03T08:43:00;1.40;;;1.27;;
3563;SDS011;1796;52.388;13.096;2022-08-03T08:45:28;1.50;;;1.30;;
3563;SDS011;1796;52.388;13.096;2022-08-03T08:47:55;3.07;;;1.20;;
3563;SDS011;1796;52.388;13.096;2022-08-03T08:50:25;14.00;;;1.27;;
3563;SDS011;1796;52.388;13.096;2022-08-03T08:52:52;1.63;;;1.30;;
3563;SDS011;1796;52.388;13.096;2022-08-03T08:55:20;3.37;;;1.27;;
3563;SDS011;1796;52.388;13.096;2022-08-03T08:57:49;2.77;;;1.20;;
3563;SDS011;1796;52.388;13.096;2022-08-03T09:00:18;3.97;;;2.00;;
3563;SDS011;1796;52.388;13.096;2022-08-03T09:02:45;3.33;;;1.90;;
3563;SDS011;1796;52.388;13.096;2022-08-03T09:05:13;1.63;;;1.63;;
3563;SDS011;1796;52.388;13.096;2022-08-03T09:07:42;2.93;;;1.77;;
3563;SDS011;1796;52.388;13.096;2022-08-03T09:10:11;11.77;;;1.37;;
3563;SDS011;1796;52.388;13.096;2022-08-03T09:12:40;4.47;;;1.70;;
3563;SDS011;1796;52.388;13.096;2022-08-03T09:15:18;2.70;;;2.00;;
3563;SDS011;1796;52.388;13.096;2022-08-03T09:17:47;2.40;;;1.53;;
3563;SDS011;1796;52.388;13.096;2022-08-03T09:20:17;6.83;;;2.07;;
3563;SDS011;1796;52.388;13.096;2022-08-03T09:22:52;3.70;;;1.90;;
3563;SDS011;1796;52.388;13.096;2022-08-03T09:25:25;1.50;;;1.40;;
3563;SDS011;1796;52.388;13.096;2022-08-03T09:27:54;2.30;;;1.33;;
3563;SDS011;1796;52.388;13.096;2022-08-03T09:30:29;9.70;;;1.43;;
3563;SDS011;1796;52.388;13.096;2022-08-03T09:32:58;1.70;;;1.70;;
3563;SDS011;1796;52.388;13.096;2022-08-03T09:35:26;2.07;;;1.90;;
3563;SDS011;1796;52.388;13.096;2022-08-03T09:38:08;10.13;;;1.93;;
3563;SDS011;1796;52.388;13.096;2022-08-03T09:40:37;1.50;;;1.40;;
3563;SDS011;1796;52.388;13.096;2022-08-03T09:43:04;2.00;;;1.80;;
3563;SDS011;1796;52.388;13.096;2022-08-03T09:45:32;4.13;;;1.90;;
3563;SDS011;1796;52.388;13.096;2022-08-03T09:50:52;5.03;;;1.47;;
3563;SDS011;1796;52.388;13.096;2022-08-03T09:53:21;2.10;;;2.00;;
3563;SDS011;1796;52.388;13.096;2022-08-03T09:55:49;3.00;;;1.63;;
3563;SDS011;1796;52.388;13.096;2022-08-03T09:58:18;2.60;;;1.83;;
3563;SDS011;1796;52.388;13.096;2022-08-03T10:00:51;7.20;;;2.10;;
3563;SDS011;1796;52.388;13.096;2022-08-03T10:03:22;10.13;;;1.67;;
3563;SDS011;1796;52.388;13.096;2022-08-03T10:05:50;3.43;;;1.73;;
3563;SDS011;1796;52.388;13.096;2022-08-03T10:08:17;4.00;;;2.00;;
3563;SDS011;1796;52.388;13.096;2022-08-03T10:10:47;3.90;;;1.80;;
3563;SDS011;1796;52.388;13.096;2022-08-03T10:13:18;1.60;;;1.50;;
3563;SDS011;1796;52.388;13.096;2022-08-03T10:15:45;3.83;;;2.00;;
3563;SDS011;1796;52.388;13.096;2022-08-03T10:18:12;1.77;;;1.70;;
3563;SDS011;1796;52.388;13.096;2022-08-03T10:20:42;1.70;;;1.60;;
3563;SDS011;1796;52.388;13.096;2022-08-03T10:23:11;1.70;;;1.60;;
3563;SDS011;1796;52.388;13.096;2022-08-03T10:25:42;1.80;;;1.70;;
3563;SDS011;1796;52.388;13.096;2022-08-03T10:28:14;4.60;;;1.83;;
3563;SDS011;1796;52.388;13.096;2022-08-03T10:30:47;2.40;;;2.00;;
3563;SDS011;1796;52.388;13.096;2022-08-03T10:33:17;2.40;;;1.90;;
3563;SDS011;1796;52.388;13.096;2022-08-03T10:35:46;2.23;;;2.13;;
3563;SDS011;1796;52.388;13.096;2022-08-03T10:38:21;1.80;;;1.70;;
3563;SDS011;1796;52.388;13.096;2022-08-03T10:40:52;9.87;;;1.70;;
3563;SDS011;1796;52.388;13.096;2022-08-03T10:43:24;1.90;;;1.80;;
3563;SDS011;1796;52.388;13.096;2022-08-03T10:45:53;1.70;;;1.60;;
3563;SDS011;1796;52.388;13.096;2022-08-03T10:48:22;3.13;;;1.70;;
3563;SDS011;1796;52.388;13.096;2022-08-03T10:50:49;1.83;;;1.73;;
3563;SDS011;1796;52.388;13.096;2022-08-03T10:53:32;2.20;;;2.00;;
3563;SDS011;1796;52.388;13.096;2022-08-03T10:56:00;2.73;;;1.90;;
3563;SDS011;1796;52.388;13.096;2022-08-03T10:58:50;2.10;;;1.50;;
3563;SDS011;1796;52.388;13.096;2022-08-03T11:01:17;1.47;;;1.37;;
3563;SDS011;1796;52.388;13.096;2022-08-03T11:04:14;1.73;;;1.63;;
3563;SDS011;1796;52.388;13.096;2022-08-03T11:06:43;8.73;;;2.10;;
3563;SDS011;1796;52.388;13.096;2022-08-03T11:09:18;1.77;;;1.67;;
3563;SDS011;1796;52.388;13.096;2022-08-03T11:11:46;3.40;;;1.80;;
3563;SDS011;1796;52.388;13.096;2022-08-03T11:14:16;1.70;;;1.60;;
3563;SDS011;1796;52.388;13.096;2022-08-03T11:16:45;1.67;;;1.67;;
3563;SDS011;1796;52.388;13.096;2022-08-03T11:19:15;1.97;;;1.87;;
3563;SDS011;1796;52.388;13.096;2022-08-03T11:21:53;2.63;;;1.57;;
3563;SDS011;1796;52.388;13.096;2022-08-03T11:27:25;3.83;;;1.60;;
3563;SDS011;1796;52.388;13.096;2022-08-03T11:29:56;2.30;;;2.00;;
3563;SDS011;1796;52.388;13.096;2022-08-03T11:35:16;8.07;;;2.10;;
3563;SDS011;1796;52.388;13.096;2022-08-03T11:40:34;3.50;;;1.87;;
3563;SDS011;1796;52.388;13.096;2022-08-03T11:43:02;3.07;;;1.50;;
3563;SDS011;1796;52.388;13.096;2022-08-03T11:45:32;2.60;;;1.60;;
3563;SDS011;1796;52.388;13.096;2022-08-03T11:48:01;4.50;;;1.73;;
3563;SDS011;1796;52.388;13.096;2022-08-03T11:50:37;1.57;;;1.57;;
3563;SDS011;1796;52.388;13.096;2022-08-03T11:53:04;1.63;;;1.53;;
3563;SDS011;1796;52.388;13.096;2022-08-03T11:55:32;3.40;;;1.77;;
3563;SDS011;1796;52.388;13.096;2022-08-03T11:58:03;3.83;;;2.03;;
3563;SDS011;1796;52.388;13.096;2022-08-03T12:00:32;2.03;;;1.93;;
3563;SDS011;1796;52.388;13.096;2022-08-03T12:03:00;5.90;;;1.77;;
3563;SDS011;1796;52.388;13.096;2022-08-03T12:05:37;3.00;;;1.73;;
3563;SDS011;1796;52.388;13.096;2022-08-03T12:08:06;2.67;;;1.90;;
3563;SDS011;1796;52.388;13.096;2022-08-03T12:10:34;14.30;;;1.80;;
3563;SDS011;1796;52.388;13.096;2022-08-03T12:13:03;2.57;;;1.70;;
3563;SDS011;1796;52.388;13.096;2022-08-03T12:15:34;1.70;;;1.60;;
3563;SDS011;1796;52.388;13.096;2022-08-03T12:18:03;2.13;;;2.03;;
3563;SDS011;1796;52.388;13.096;2022-08-03T12:20:39;2.57;;;1.53;;
3563;SDS011;1796;52.388;13.096;2022-08-03T12:23:06;3.43;;;1.50;;
3563;SDS011;1796;52.388;13.096;2022-08-03T12:25:35;1.67;;;1.47;;
3563;SDS011;1796;52.388;13.096;2022-08-03T12:28:10;6.80;;;2.07;;
3563;SDS011;1796;52.388;13.096;2022-08-03T12:30:42;5.13;;;1.80;;
3563;SDS011;1796;52.388;13.096;2022-08-03T12:33:11;1.50;;;1.40;;
3563;SDS011;1796;52.388;13.096;2022-08-03T12:35:48;1.87;;;1.60;;
3563;SDS011;1796;52.388;13.096;2022-08-03T12:38:20;2.40;;;1.77;;
3563;SDS011;1796;52.388;13.096;2022-08-03T12:43:45;1.37;;;1.30;;
3563;SDS011;1796;52.388;13.096;2022-08-03T12:46:15;1.73;;;1.67;;
3563;SDS011;1796;52.388;13.096;2022-08-03T12:49:05;1.90;;;1.80;;
3563;SDS011;1796;52.388;13.096;2022-08-03T12:51:34;1.30;;;1.30;;
3563;SDS011;1796;52.388;13.096;2022-08-03T12:54:02;1.60;;;1.50;;
3563;SDS011;1796;52.388;13.096;2022-08-03T12:56:30;1.83;;;1.73;;
3563;SDS011;1796;52.388;13.096;2022-08-03T12:58:57;4.63;;;1.73;;
3563;SDS011;1796;52.388;13.096;2022-08-03T13:01:25;3.83;;;1.83;;
3563;SDS011;1796;52.388;13.096;2022-08-03T13:04:01;3.50;;;1.80;;
3563;SDS011;1796;52.388;13.096;2022-08-03T13:06:29;5.37;;;2.20;;
3563;SDS011;1796;52.388;13.096;2022-08-03T13:09:00;3.53;;;1.73;;
3563;SDS011;1796;52.388;13.096;2022-08-03T13:11:29;2.43;;;1.90;;
3563;SDS011;1796;52.388;13.096;2022-08-03T13:13:56;2.03;;;1.93;;
3563;SDS011;1796;52.388;13.096;2022-08-03T13:16:23;1.80;;;1.50;;
3563;SDS011;1796;52.388;13.096;2022-08-03T13:18:51;1.57;;;1.57;;
3563;SDS011;1796;52.388;13.096;2022-08-03T13:21:19;1.77;;;1.67;;
3563;SDS011;1796;52.388;13.096;2022-08-03T13:23:47;3.80;;;2.00;;
3563;SDS011;1796;52.388;13.096;2022-08-03T13:26:14;1.93;;;1.63;;
3563;SDS011;1796;52.388;13.096;2022-08-03T13:28:41;1.40;;;1.40;;
3563;SDS011;1796;52.388;13.096;2022-08-03T13:31:07;1.73;;;1.67;;
3563;SDS011;1796;52.388;13.096;2022-08-03T13:33:34;1.43;;;1.40;;
3563;SDS011;1796;52.388;13.096;2022-08-03T13:36:04;1.80;;;1.70;;
3563;SDS011;1796;52.388;13.096;2022-08-03T13:38:32;2.30;;;1.60;;
3563;SDS011;1796;52.388;13.096;2022-08-03T13:40:59;5.23;;;2.10;;
3563;SDS011;1796;52.388;13.096;2022-08-03T13:43:27;1.70;;;1.60;;
3563;SDS011;1796;52.388;13.096;2022-08-03T13:45:54;2.00;;;1.90;;
3563;SDS011;1796;52.388;13.096;2022-08-03T13:48:21;3.33;;;1.47;;
3563;SDS011;1796;52.388;13.096;2022-08-03T13:50:48;1.80;;;1.50;;
3563;SDS011;1796;52.388;13.096;2022-08-03T13:53:16;1.67;;;1.57;;
3563;SDS011;1796;52.388;13.096;2022-08-03T13:55:43;3.83;;;1.50;;
3563;SDS011;1796;52.388;13.096;2022-08-03T13:58:10;3.27;;;1.80;;
3563;SDS011;1796;52.388;13.096;2022-08-03T14:00:37;4.50;;;2.10;;
3563;SDS011;1796;52.388;13.096;2022-08-03T14:03:05;6.93;;;1.67;;
3563;SDS011;1796;52.388;13.096;2022-08-03T14:05:32;1.60;;;1.60;;
3563;SDS011;1796;52.388;13.096;2022-08-03T14:07:59;1.40;;;1.40;;
3563;SDS011;1796;52.388;13.096;2022-08-03T14:10:29;1.87;;;1.77;;
3563;SDS011;1796;52.388;13.096;2022-08-03T14:12:56;2.70;;;2.10;;
3563;SDS011;1796;52.388;13.096;2022-08-03T14:15:24;1.67;;;1.50;;
3563;SDS011;1796;52.388;13.096;2022-08-03T14:17:52;1.63;;;1.53;;
3563;SDS011;1796;52.388;13.096;2022-08-03T14:20:19;1.70;;;1.60;;
3563;SDS011;1796;52.388;13.096;2022-08-03T14:22:46;3.63;;;1.77;;
3563;SDS011;1796;52.388;13.096;2022-08-03T14:25:13;7.27;;;2.10;;
3563;SDS011;1796;52.388;13.096;2022-08-03T14:27:41;7.00;;;1.70;;
3563;SDS011;1796;52.388;13.096;2022-08-03T14:30:09;10.23;;;1.77;;
3563;SDS011;1796;52.388;13.096;2022-08-03T14:32:36;2.10;;;1.40;;
3563;SDS011;1796;52.388;13.096;2022-08-03T14:35:03;1.80;;;1.70;;
3563;SDS011;1796;52.388;13.096;2022-08-03T14:37:31;2.13;;;1.30;;
3563;SDS011;1796;52.388;13.096;2022-08-03T14:39:58;7.47;;;1.83;;
3563;SDS011;1796;52.388;13.096;2022-08-03T14:42:25;2.17;;;1.97;;
3563;SDS011;1796;52.388;13.096;2022-08-03T14:44:53;3.57;;;1.40;;
3563;SDS011;1796;52.388;13.096;2022-08-03T14:47:20;2.03;;;1.50;;
3563;SDS011;1796;52.388;13.096;2022-08-03T14:49:47;2.93;;;1.70;;
3563;SDS011;1796;52.388;13.096;2022-08-03T14:52:14;1.93;;;1.50;;
3563;SDS011;1796;52.388;13.096;2022-08-03T14:54:41;8.83;;;1.63;;
3563;SDS011;1796;52.388;13.096;2022-08-03T14:57:08;1.70;;;1.60;;
3563;SDS011;1796;52.388;13.096;2022-08-03T14:59:35;2.30;;;1.50;;
3563;SDS011;1796;52.388;13.096;2022-08-03T15:02:04;1.73;;;1.70;;
3563;SDS011;1796;52.388;13.096;2022-08-03T15:04:31;1.30;;;1.20;;
3563;SDS011;1796;52.388;13.096;2022-08-03T15:06:57;2.60;;;2.43;;
3563;SDS011;1796;52.388;13.096;2022-08-03T15:09:25;1.97;;;1.50;;
3563;SDS011;1796;52.388;13.096;2022-08-03T15:11:52;4.50;;;1.67;;
3563;SDS011;1796;52.388;13.096;2022-08-03T15:14:19;1.37;;;1.37;;
3563;SDS011;1796;52.388;13.096;2022-08-03T15:16:46;9.03;;;1.67;;
3563;SDS011;1796;52.388;13.096;2022-08-03T15:19:14;1.40;;;1.30;;
3563;SDS011;1796;52.388;13.096;2022-08-03T15:21:41;1.40;;;1.40;;
3563;SDS011;1796;52.388;13.096;2022-08-03T15:24:08;1.40;;;1.30;;